sensor_id;sensor_type;location;lat;lon;timestamp;temperature;humidity
40434;DHT22;26146;51.114;5.654;2023-06-14T00:00:28;18.50;92.30
40434;DHT22;26146;51.114;5.654;2023-06-14T00:04:28;18.40;92.80
40434;DHT22;26146;51.114;5.654;2023-06-14T00:08:29;18.30;92.60
40434;DHT22;26146;51.114;5.654;2023-06-14T00:12:31;18.20;92.60
40434;DHT22;26146;51.114;5.654;2023-06-14T00:16:32;18.10;93.10
40434;DHT22;26146;51.114;5.654;2023-06-14T00:20:34;18.00;93.60
40434;DHT22;26146;51.114;5.654;2023-06-14T00:24:35;17.90;94.20
40434;DHT22;26146;51.114;5.654;2023-06-14T00:28:35;17.90;94.20
40434;DHT22;26146;51.114;5.654;2023-06-14T00:32:36;17.90;94.60
40434;DHT22;26146;51.114;5.654;2023-06-14T00:36:37;18.00;94.90
40434;DHT22;26146;51.114;5.654;2023-06-14T00:40:38;18.00;94.90
40434;DHT22;26146;51.114;5.654;2023-06-14T00:44:39;17.90;94.80
40434;DHT22;26146;51.114;5.654;2023-06-14T00:48:40;17.90;95.10
40434;DHT22;26146;51.114;5.654;2023-06-14T00:52:41;17.80;94.90
40434;DHT22;26146;51.114;5.654;2023-06-14T00:56:43;17.80;94.70
40434;DHT22;26146;51.114;5.654;2023-06-14T01:00:45;17.90;94.90
40434;DHT22;26146;51.114;5.654;2023-06-14T01:04:47;17.80;94.90
40434;DHT22;26146;51.114;5.654;2023-06-14T01:17:19;17.60;95.60
40434;DHT22;26146;51.114;5.654;2023-06-14T01:21:25;17.60;95.60
40434;DHT22;26146;51.114;5.654;2023-06-14T01:25:26;17.60;95.40
40434;DHT22;26146;51.114;5.654;2023-06-14T01:29:27;17.50;95.50
40434;DHT22;26146;51.114;5.654;2023-06-14T01:33:35;17.50;95.90
40434;DHT22;26146;51.114;5.654;2023-06-14T01:37:37;17.40;95.90
40434;DHT22;26146;51.114;5.654;2023-06-14T01:41:39;17.40;96.20
40434;DHT22;26146;51.114;5.654;2023-06-14T01:45:41;17.30;96.50
40434;DHT22;26146;51.114;5.654;2023-06-14T01:49:42;17.20;96.30
40434;DHT22;26146;51.114;5.654;2023-06-14T01:53:43;17.20;96.60
40434;DHT22;26146;51.114;5.654;2023-06-14T01:57:44;17.20;97.00
40434;DHT22;26146;51.114;5.654;2023-06-14T02:01:45;17.20;97.20
40434;DHT22;26146;51.114;5.654;2023-06-14T02:05:48;17.10;97.10
40434;DHT22;26146;51.114;5.654;2023-06-14T02:09:49;17.00;97.00
40434;DHT22;26146;51.114;5.654;2023-06-14T02:13:50;17.00;97.30
40434;DHT22;26146;51.114;5.654;2023-06-14T02:17:51;16.90;97.70
40434;DHT22;26146;51.114;5.654;2023-06-14T02:21:52;16.90;97.70
40434;DHT22;26146;51.114;5.654;2023-06-14T02:25:53;16.80;97.90
40434;DHT22;26146;51.114;5.654;2023-06-14T02:29:54;16.80;98.10
40434;DHT22;26146;51.114;5.654;2023-06-14T02:33:55;16.60;98.00
40434;DHT22;26146;51.114;5.654;2023-06-14T02:37:56;16.60;98.20
40434;DHT22;26146;51.114;5.654;2023-06-14T02:41:57;16.60;98.30
40434;DHT22;26146;51.114;5.654;2023-06-14T02:45:58;16.50;98.60
40434;DHT22;26146;51.114;5.654;2023-06-14T02:49:59;16.50;98.90
40434;DHT22;26146;51.114;5.654;2023-06-14T02:54:00;16.50;99.00
40434;DHT22;26146;51.114;5.654;2023-06-14T02:58:01;16.40;99.20
40434;DHT22;26146;51.114;5.654;2023-06-14T03:02:02;16.40;99.40
40434;DHT22;26146;51.114;5.654;2023-06-14T03:06:03;16.30;99.40
40434;DHT22;26146;51.114;5.654;2023-06-14T03:10:06;16.40;99.20
40434;DHT22;26146;51.114;5.654;2023-06-14T03:14:08;16.40;99.10
40434;DHT22;26146;51.114;5.654;2023-06-14T03:18:09;16.40;99.20
40434;DHT22;26146;51.114;5.654;2023-06-14T03:22:10;16.40;99.40
40434;DHT22;26146;51.114;5.654;2023-06-14T03:26:12;16.40;99.50
40434;DHT22;26146;51.114;5.654;2023-06-14T03:30:14;16.30;99.50
40434;DHT22;26146;51.114;5.654;2023-06-14T03:34:15;16.30;99.60
40434;DHT22;26146;51.114;5.654;2023-06-14T03:38:18;16.40;99.40
40434;DHT22;26146;51.114;5.654;2023-06-14T03:42:19;16.40;99.30
40434;DHT22;26146;51.114;5.654;2023-06-14T03:46:20;16.50;99.40
40434;DHT22;26146;51.114;5.654;2023-06-14T03:50:21;16.80;99.00
40434;DHT22;26146;51.114;5.654;2023-06-14T03:54:22;17.60;97.60
40434;DHT22;26146;51.114;5.654;2023-06-14T03:58:23;18.40;96.10
40434;DHT22;26146;51.114;5.654;2023-06-14T04:02:23;19.40;94.50
40434;DHT22;26146;51.114;5.654;2023-06-14T04:06:25;20.50;92.40
40434;DHT22;26146;51.114;5.654;2023-06-14T04:10:32;21.60;90.10
40434;DHT22;26146;51.114;5.654;2023-06-14T04:14:33;22.60;85.90
40434;DHT22;26146;51.114;5.654;2023-06-14T04:18:34;22.20;84.50
40434;DHT22;26146;51.114;5.654;2023-06-14T04:22:36;21.00;88.60
40434;DHT22;26146;51.114;5.654;2023-06-14T04:26:37;20.10;90.80
40434;DHT22;26146;51.114;5.654;2023-06-14T04:30:38;19.50;91.80
40434;DHT22;26146;51.114;5.654;2023-06-14T04:34:39;19.10;92.60
40434;DHT22;26146;51.114;5.654;2023-06-14T04:38:40;19.00;92.70
40434;DHT22;26146;51.114;5.654;2023-06-14T04:42:42;18.90;92.90
40434;DHT22;26146;51.114;5.654;2023-06-14T04:46:46;18.90;93.20
40434;DHT22;26146;51.114;5.654;2023-06-14T04:50:46;19.10;92.80
40434;DHT22;26146;51.114;5.654;2023-06-14T04:54:47;19.20;91.90
40434;DHT22;26146;51.114;5.654;2023-06-14T04:58:49;19.20;91.80
40434;DHT22;26146;51.114;5.654;2023-06-14T05:02:50;19.20;91.90
40434;DHT22;26146;51.114;5.654;2023-06-14T05:06:51;19.20;92.30
40434;DHT22;26146;51.114;5.654;2023-06-14T05:10:55;19.40;91.60
40434;DHT22;26146;51.114;5.654;2023-06-14T05:14:56;19.20;92.00
40434;DHT22;26146;51.114;5.654;2023-06-14T05:18:59;19.30;92.30
40434;DHT22;26146;51.114;5.654;2023-06-14T05:23:00;19.50;92.00
40434;DHT22;26146;51.114;5.654;2023-06-14T05:27:01;19.50;92.20
40434;DHT22;26146;51.114;5.654;2023-06-14T05:31:02;19.80;91.80
40434;DHT22;26146;51.114;5.654;2023-06-14T05:35:03;20.00;91.60
40434;DHT22;26146;51.114;5.654;2023-06-14T05:39:05;20.10;91.30
40434;DHT22;26146;51.114;5.654;2023-06-14T05:43:06;20.10;91.20
40434;DHT22;26146;51.114;5.654;2023-06-14T05:47:07;20.20;91.50
40434;DHT22;26146;51.114;5.654;2023-06-14T05:51:08;20.30;91.50
40434;DHT22;26146;51.114;5.654;2023-06-14T05:55:09;20.30;91.00
40434;DHT22;26146;51.114;5.654;2023-06-14T05:59:12;20.30;90.80
40434;DHT22;26146;51.114;5.654;2023-06-14T06:03:13;20.20;91.70
40434;DHT22;26146;51.114;5.654;2023-06-14T06:07:14;20.40;91.20
40434;DHT22;26146;51.114;5.654;2023-06-14T06:11:16;20.50;91.20
40434;DHT22;26146;51.114;5.654;2023-06-14T06:15:17;20.20;91.30
40434;DHT22;26146;51.114;5.654;2023-06-14T06:19:19;20.20;91.40
40434;DHT22;26146;51.114;5.654;2023-06-14T06:23:20;20.30;92.00
40434;DHT22;26146;51.114;5.654;2023-06-14T06:27:21;20.80;91.50
40434;DHT22;26146;51.114;5.654;2023-06-14T06:31:22;20.90;90.90
40434;DHT22;26146;51.114;5.654;2023-06-14T06:35:23;20.90;90.30
40434;DHT22;26146;51.114;5.654;2023-06-14T06:39:25;21.20;89.50
40434;DHT22;26146;51.114;5.654;2023-06-14T06:43:26;21.10;90.30
40434;DHT22;26146;51.114;5.654;2023-06-14T06:47:27;21.10;90.10
40434;DHT22;26146;51.114;5.654;2023-06-14T06:51:28;21.70;88.80
40434;DHT22;26146;51.114;5.654;2023-06-14T06:55:30;21.90;86.20
40434;DHT22;26146;51.114;5.654;2023-06-14T06:59:31;21.90;85.50
40434;DHT22;26146;51.114;5.654;2023-06-14T07:03:32;21.80;85.20
40434;DHT22;26146;51.114;5.654;2023-06-14T07:07:33;22.10;85.10
40434;DHT22;26146;51.114;5.654;2023-06-14T07:11:34;22.20;84.00
40434;DHT22;26146;51.114;5.654;2023-06-14T07:15:35;22.10;85.00
40434;DHT22;26146;51.114;5.654;2023-06-14T07:19:36;22.20;83.60
40434;DHT22;26146;51.114;5.654;2023-06-14T07:23:37;22.50;82.90
40434;DHT22;26146;51.114;5.654;2023-06-14T07:27:38;22.40;81.90
40434;DHT22;26146;51.114;5.654;2023-06-14T07:31:39;22.40;81.70
40434;DHT22;26146;51.114;5.654;2023-06-14T07:35:40;22.50;82.00
40434;DHT22;26146;51.114;5.654;2023-06-14T07:39:42;22.80;80.40
40434;DHT22;26146;51.114;5.654;2023-06-14T07:43:43;22.60;79.10
40434;DHT22;26146;51.114;5.654;2023-06-14T07:47:45;22.70;79.60
40434;DHT22;26146;51.114;5.654;2023-06-14T07:51:46;22.90;79.10
40434;DHT22;26146;51.114;5.654;2023-06-14T07:55:48;23.00;78.70
40434;DHT22;26146;51.114;5.654;2023-06-14T07:59:50;23.30;77.80
40434;DHT22;26146;51.114;5.654;2023-06-14T08:03:51;23.20;77.50
40434;DHT22;26146;51.114;5.654;2023-06-14T08:07:52;23.10;77.20
40434;DHT22;26146;51.114;5.654;2023-06-14T08:11:53;23.30;77.50
40434;DHT22;26146;51.114;5.654;2023-06-14T08:15:54;23.40;76.50
40434;DHT22;26146;51.114;5.654;2023-06-14T08:19:58;23.50;75.50
40434;DHT22;26146;51.114;5.654;2023-06-14T08:23:59;23.60;74.60
40434;DHT22;26146;51.114;5.654;2023-06-14T08:28:01;23.70;73.70
40434;DHT22;26146;51.114;5.654;2023-06-14T08:32:02;23.80;73.70
40434;DHT22;26146;51.114;5.654;2023-06-14T08:36:03;23.90;72.80
40434;DHT22;26146;51.114;5.654;2023-06-14T08:40:06;24.00;74.30
40434;DHT22;26146;51.114;5.654;2023-06-14T08:44:14;24.20;73.30
40434;DHT22;26146;51.114;5.654;2023-06-14T08:48:16;24.30;73.90
40434;DHT22;26146;51.114;5.654;2023-06-14T08:52:21;24.60;71.40
40434;DHT22;26146;51.114;5.654;2023-06-14T08:56:27;24.60;71.50
40434;DHT22;26146;51.114;5.654;2023-06-14T09:00:31;24.50;71.00
40434;DHT22;26146;51.114;5.654;2023-06-14T09:04:33;24.40;71.70
40434;DHT22;26146;51.114;5.654;2023-06-14T09:08:35;24.70;72.30
40434;DHT22;26146;51.114;5.654;2023-06-14T09:12:36;24.60;71.30
40434;DHT22;26146;51.114;5.654;2023-06-14T09:16:37;24.50;70.70
40434;DHT22;26146;51.114;5.654;2023-06-14T09:20:38;24.70;70.60
40434;DHT22;26146;51.114;5.654;2023-06-14T09:24:41;24.60;70.30
40434;DHT22;26146;51.114;5.654;2023-06-14T09:28:44;24.40;70.20
40434;DHT22;26146;51.114;5.654;2023-06-14T09:32:45;24.40;69.40
40434;DHT22;26146;51.114;5.654;2023-06-14T09:36:47;24.40;67.10
40434;DHT22;26146;51.114;5.654;2023-06-14T09:40:52;24.20;67.40
40434;DHT22;26146;51.114;5.654;2023-06-14T09:44:55;24.20;69.50
40434;DHT22;26146;51.114;5.654;2023-06-14T09:49:00;24.50;67.20
40434;DHT22;26146;51.114;5.654;2023-06-14T09:53:06;24.70;66.50
40434;DHT22;26146;51.114;5.654;2023-06-14T09:57:09;24.90;66.40
40434;DHT22;26146;51.114;5.654;2023-06-14T10:01:12;24.80;63.60
40434;DHT22;26146;51.114;5.654;2023-06-14T10:05:15;24.60;65.00
40434;DHT22;26146;51.114;5.654;2023-06-14T10:09:18;24.60;62.10
40434;DHT22;26146;51.114;5.654;2023-06-14T10:13:20;24.80;62.10
40434;DHT22;26146;51.114;5.654;2023-06-14T10:17:49;24.80;62.20
40434;DHT22;26146;51.114;5.654;2023-06-14T10:21:59;24.90;61.60
40434;DHT22;26146;51.114;5.654;2023-06-14T10:26:02;24.90;60.90
40434;DHT22;26146;51.114;5.654;2023-06-14T10:30:03;25.00;61.70
40434;DHT22;26146;51.114;5.654;2023-06-14T10:34:05;25.00;61.70
40434;DHT22;26146;51.114;5.654;2023-06-14T10:38:11;25.10;61.50
40434;DHT22;26146;51.114;5.654;2023-06-14T10:42:13;25.20;61.60
40434;DHT22;26146;51.114;5.654;2023-06-14T10:46:20;25.20;61.60
40434;DHT22;26146;51.114;5.654;2023-06-14T10:50:30;25.10;62.00
40434;DHT22;26146;51.114;5.654;2023-06-14T10:54:31;25.20;62.60
40434;DHT22;26146;51.114;5.654;2023-06-14T10:58:32;25.10;61.40
40434;DHT22;26146;51.114;5.654;2023-06-14T11:11:22;25.60;61.90
40434;DHT22;26146;51.114;5.654;2023-06-14T11:15:31;25.60;62.60
40434;DHT22;26146;51.114;5.654;2023-06-14T11:19:32;25.50;61.30
40434;DHT22;26146;51.114;5.654;2023-06-14T11:23:33;25.40;62.10
40434;DHT22;26146;51.114;5.654;2023-06-14T11:27:34;25.40;62.70
40434;DHT22;26146;51.114;5.654;2023-06-14T11:31:35;25.40;62.60
40434;DHT22;26146;51.114;5.654;2023-06-14T11:35:36;25.50;62.90
40434;DHT22;26146;51.114;5.654;2023-06-14T11:39:43;25.60;63.40
40434;DHT22;26146;51.114;5.654;2023-06-14T11:43:45;25.60;65.40
40434;DHT22;26146;51.114;5.654;2023-06-14T11:47:46;25.60;63.50
40434;DHT22;26146;51.114;5.654;2023-06-14T11:51:47;25.60;62.90
40434;DHT22;26146;51.114;5.654;2023-06-14T11:55:48;25.60;63.00
40434;DHT22;26146;51.114;5.654;2023-06-14T11:59:49;25.40;63.50
40434;DHT22;26146;51.114;5.654;2023-06-14T12:03:52;25.50;63.10
40434;DHT22;26146;51.114;5.654;2023-06-14T12:08:00;25.60;63.40
40434;DHT22;26146;51.114;5.654;2023-06-14T12:12:03;25.40;63.50
40434;DHT22;26146;51.114;5.654;2023-06-14T12:16:04;25.20;64.00
40434;DHT22;26146;51.114;5.654;2023-06-14T12:20:10;25.00;64.30
40434;DHT22;26146;51.114;5.654;2023-06-14T12:24:17;25.10;65.20
40434;DHT22;26146;51.114;5.654;2023-06-14T12:28:18;25.20;64.70
40434;DHT22;26146;51.114;5.654;2023-06-14T12:32:19;25.20;64.70
40434;DHT22;26146;51.114;5.654;2023-06-14T12:36:20;25.30;62.30
40434;DHT22;26146;51.114;5.654;2023-06-14T12:40:21;25.30;64.60
40434;DHT22;26146;51.114;5.654;2023-06-14T12:44:22;25.40;63.60
40434;DHT22;26146;51.114;5.654;2023-06-14T12:48:23;25.40;65.00
40434;DHT22;26146;51.114;5.654;2023-06-14T12:52:24;25.60;63.60
40434;DHT22;26146;51.114;5.654;2023-06-14T12:56:25;25.40;62.80
40434;DHT22;26146;51.114;5.654;2023-06-14T13:00:27;25.50;63.30
40434;DHT22;26146;51.114;5.654;2023-06-14T13:04:28;25.80;63.10
40434;DHT22;26146;51.114;5.654;2023-06-14T13:08:30;25.80;63.10
40434;DHT22;26146;51.114;5.654;2023-06-14T13:12:31;25.60;63.90
40434;DHT22;26146;51.114;5.654;2023-06-14T13:16:32;25.60;62.40
40434;DHT22;26146;51.114;5.654;2023-06-14T13:20:33;25.40;61.80
40434;DHT22;26146;51.114;5.654;2023-06-14T13:24:34;25.40;63.70
40434;DHT22;26146;51.114;5.654;2023-06-14T13:28:35;25.40;63.70
40434;DHT22;26146;51.114;5.654;2023-06-14T13:32:36;25.60;63.90
40434;DHT22;26146;51.114;5.654;2023-06-14T13:36:37;25.60;65.10
40434;DHT22;26146;51.114;5.654;2023-06-14T13:40:39;25.60;64.20
40434;DHT22;26146;51.114;5.654;2023-06-14T13:44:40;25.60;65.00
40434;DHT22;26146;51.114;5.654;2023-06-14T13:48:41;25.60;65.40
40434;DHT22;26146;51.114;5.654;2023-06-14T13:52:42;25.60;63.90
40434;DHT22;26146;51.114;5.654;2023-06-14T13:56:43;25.60;64.20
40434;DHT22;26146;51.114;5.654;2023-06-14T14:00:44;25.70;63.90
40434;DHT22;26146;51.114;5.654;2023-06-14T14:04:45;25.60;64.10
40434;DHT22;26146;51.114;5.654;2023-06-14T14:08:52;25.60;64.40
40434;DHT22;26146;51.114;5.654;2023-06-14T14:12:53;25.70;63.60
40434;DHT22;26146;51.114;5.654;2023-06-14T14:16:55;25.80;62.90
40434;DHT22;26146;51.114;5.654;2023-06-14T14:20:56;25.80;62.50
40434;DHT22;26146;51.114;5.654;2023-06-14T14:24:57;25.80;62.00
40434;DHT22;26146;51.114;5.654;2023-06-14T14:28:58;25.70;61.10
40434;DHT22;26146;51.114;5.654;2023-06-14T14:32:59;25.90;62.50
40434;DHT22;26146;51.114;5.654;2023-06-14T14:37:00;25.70;61.10
40434;DHT22;26146;51.114;5.654;2023-06-14T14:41:01;25.80;63.00
40434;DHT22;26146;51.114;5.654;2023-06-14T14:45:02;26.00;62.50
40434;DHT22;26146;51.114;5.654;2023-06-14T14:49:03;26.10;63.10
40434;DHT22;26146;51.114;5.654;2023-06-14T14:53:06;26.10;63.50
40434;DHT22;26146;51.114;5.654;2023-06-14T14:57:07;26.30;63.50
40434;DHT22;26146;51.114;5.654;2023-06-14T15:01:08;26.10;62.80
40434;DHT22;26146;51.114;5.654;2023-06-14T15:05:09;25.90;64.10
40434;DHT22;26146;51.114;5.654;2023-06-14T15:09:10;26.00;61.80
40434;DHT22;26146;51.114;5.654;2023-06-14T15:13:11;26.10;62.70
40434;DHT22;26146;51.114;5.654;2023-06-14T15:17:12;26.20;63.20
40434;DHT22;26146;51.114;5.654;2023-06-14T15:21:13;26.20;63.90
40434;DHT22;26146;51.114;5.654;2023-06-14T15:25:14;26.40;64.10
40434;DHT22;26146;51.114;5.654;2023-06-14T15:29:15;26.40;64.20
40434;DHT22;26146;51.114;5.654;2023-06-14T15:33:16;26.50;64.00
40434;DHT22;26146;51.114;5.654;2023-06-14T15:37:17;26.40;64.70
40434;DHT22;26146;51.114;5.654;2023-06-14T15:41:18;26.20;63.90
40434;DHT22;26146;51.114;5.654;2023-06-14T15:45:19;26.10;65.00
40434;DHT22;26146;51.114;5.654;2023-06-14T15:49:20;26.20;64.90
40434;DHT22;26146;51.114;5.654;2023-06-14T15:53:21;26.40;65.10
40434;DHT22;26146;51.114;5.654;2023-06-14T15:57:22;26.20;64.70
40434;DHT22;26146;51.114;5.654;2023-06-14T16:01:23;25.90;65.10
40434;DHT22;26146;51.114;5.654;2023-06-14T16:05:25;26.00;64.70
40434;DHT22;26146;51.114;5.654;2023-06-14T16:09:26;26.10;63.90
40434;DHT22;26146;51.114;5.654;2023-06-14T16:13:28;25.90;64.60
40434;DHT22;26146;51.114;5.654;2023-06-14T16:17:29;25.90;65.40
40434;DHT22;26146;51.114;5.654;2023-06-14T16:21:30;26.00;65.30
40434;DHT22;26146;51.114;5.654;2023-06-14T16:25:35;26.10;65.60
40434;DHT22;26146;51.114;5.654;2023-06-14T16:29:36;26.00;65.60
40434;DHT22;26146;51.114;5.654;2023-06-14T16:33:37;25.90;64.70
40434;DHT22;26146;51.114;5.654;2023-06-14T16:37:38;26.00;64.70
40434;DHT22;26146;51.114;5.654;2023-06-14T16:41:39;26.00;65.30
40434;DHT22;26146;51.114;5.654;2023-06-14T16:45:40;25.90;65.90
40434;DHT22;26146;51.114;5.654;2023-06-14T16:49:41;26.00;66.00
40434;DHT22;26146;51.114;5.654;2023-06-14T16:53:42;26.00;65.40
40434;DHT22;26146;51.114;5.654;2023-06-14T16:57:43;26.10;65.90
40434;DHT22;26146;51.114;5.654;2023-06-14T17:01:44;26.10;65.50
40434;DHT22;26146;51.114;5.654;2023-06-14T17:05:56;26.10;65.90
40434;DHT22;26146;51.114;5.654;2023-06-14T17:09:57;26.10;67.20
40434;DHT22;26146;51.114;5.654;2023-06-14T17:13:58;26.10;67.10
40434;DHT22;26146;51.114;5.654;2023-06-14T17:17:59;26.20;67.60
40434;DHT22;26146;51.114;5.654;2023-06-14T17:22:00;26.10;67.10
40434;DHT22;26146;51.114;5.654;2023-06-14T17:26:01;26.10;67.20
40434;DHT22;26146;51.114;5.654;2023-06-14T17:30:02;26.00;66.70
40434;DHT22;26146;51.114;5.654;2023-06-14T17:34:03;25.80;66.80
40434;DHT22;26146;51.114;5.654;2023-06-14T17:38:06;25.80;67.00
40434;DHT22;26146;51.114;5.654;2023-06-14T17:42:07;25.70;67.60
40434;DHT22;26146;51.114;5.654;2023-06-14T17:46:09;25.70;67.80
40434;DHT22;26146;51.114;5.654;2023-06-14T17:50:10;25.60;68.20
40434;DHT22;26146;51.114;5.654;2023-06-14T17:54:11;25.40;67.70
40434;DHT22;26146;51.114;5.654;2023-06-14T17:58:12;25.40;68.30
40434;DHT22;26146;51.114;5.654;2023-06-14T18:02:14;25.40;68.30
40434;DHT22;26146;51.114;5.654;2023-06-14T18:06:15;25.40;68.20
40434;DHT22;26146;51.114;5.654;2023-06-14T18:10:18;25.20;68.80
40434;DHT22;26146;51.114;5.654;2023-06-14T18:14:19;25.20;68.70
40434;DHT22;26146;51.114;5.654;2023-06-14T18:18:20;25.10;69.10
40434;DHT22;26146;51.114;5.654;2023-06-14T18:22:22;24.90;69.50
40434;DHT22;26146;51.114;5.654;2023-06-14T18:26:24;24.90;69.90
40434;DHT22;26146;51.114;5.654;2023-06-14T18:30:28;25.00;69.30
40434;DHT22;26146;51.114;5.654;2023-06-14T18:34:29;24.70;69.10
40434;DHT22;26146;51.114;5.654;2023-06-14T18:38:30;24.70;69.50
40434;DHT22;26146;51.114;5.654;2023-06-14T18:42:32;24.50;70.00
40434;DHT22;26146;51.114;5.654;2023-06-14T18:46:33;24.50;70.30
40434;DHT22;26146;51.114;5.654;2023-06-14T18:50:35;24.40;70.60
40434;DHT22;26146;51.114;5.654;2023-06-14T18:54:36;24.30;71.20
40434;DHT22;26146;51.114;5.654;2023-06-14T18:58:37;24.30;71.40
40434;DHT22;26146;51.114;5.654;2023-06-14T19:02:38;24.20;71.30
40434;DHT22;26146;51.114;5.654;2023-06-14T19:06:39;24.30;71.60
40434;DHT22;26146;51.114;5.654;2023-06-14T19:10:40;24.10;71.90
40434;DHT22;26146;51.114;5.654;2023-06-14T19:14:41;24.10;71.40
40434;DHT22;26146;51.114;5.654;2023-06-14T19:18:42;24.00;71.50
40434;DHT22;26146;51.114;5.654;2023-06-14T19:22:43;23.90;71.60
40434;DHT22;26146;51.114;5.654;2023-06-14T19:26:44;23.70;72.30
40434;DHT22;26146;51.114;5.654;2023-06-14T19:30:46;23.60;72.50
40434;DHT22;26146;51.114;5.654;2023-06-14T19:34:47;23.60;72.80
40434;DHT22;26146;51.114;5.654;2023-06-14T19:38:48;23.30;73.30
40434;DHT22;26146;51.114;5.654;2023-06-14T19:42:49;23.20;74.00
40434;DHT22;26146;51.114;5.654;2023-06-14T19:46:50;23.20;74.00
40434;DHT22;26146;51.114;5.654;2023-06-14T19:50:51;23.00;74.30
40434;DHT22;26146;51.114;5.654;2023-06-14T19:54:52;23.00;74.10
40434;DHT22;26146;51.114;5.654;2023-06-14T19:58:53;22.80;74.50
40434;DHT22;26146;51.114;5.654;2023-06-14T20:02:54;22.80;74.60
40434;DHT22;26146;51.114;5.654;2023-06-14T20:06:55;22.70;75.00
40434;DHT22;26146;51.114;5.654;2023-06-14T20:10:56;22.70;74.90
40434;DHT22;26146;51.114;5.654;2023-06-14T20:14:57;22.70;74.90
40434;DHT22;26146;51.114;5.654;2023-06-14T20:18:59;22.50;75.30
40434;DHT22;26146;51.114;5.654;2023-06-14T20:23:03;22.50;75.80
40434;DHT22;26146;51.114;5.654;2023-06-14T20:27:04;22.30;76.10
40434;DHT22;26146;51.114;5.654;2023-06-14T20:31:06;22.30;75.90
40434;DHT22;26146;51.114;5.654;2023-06-14T20:35:08;22.20;76.50
40434;DHT22;26146;51.114;5.654;2023-06-14T20:39:09;22.20;76.50
40434;DHT22;26146;51.114;5.654;2023-06-14T20:43:10;22.10;76.40
40434;DHT22;26146;51.114;5.654;2023-06-14T20:47:12;22.00;76.70
40434;DHT22;26146;51.114;5.654;2023-06-14T20:51:14;21.90;77.00
40434;DHT22;26146;51.114;5.654;2023-06-14T20:55:15;21.80;77.10
40434;DHT22;26146;51.114;5.654;2023-06-14T20:59:16;21.80;77.60
40434;DHT22;26146;51.114;5.654;2023-06-14T21:03:17;21.80;77.80
40434;DHT22;26146;51.114;5.654;2023-06-14T21:07:18;21.70;78.30
40434;DHT22;26146;51.114;5.654;2023-06-14T21:11:19;21.60;78.40
40434;DHT22;26146;51.114;5.654;2023-06-14T21:15:21;21.60;78.40
40434;DHT22;26146;51.114;5.654;2023-06-14T21:19:25;21.50;78.90
40434;DHT22;26146;51.114;5.654;2023-06-14T21:23:26;21.40;79.10
40434;DHT22;26146;51.114;5.654;2023-06-14T21:27:27;21.20;79.60
40434;DHT22;26146;51.114;5.654;2023-06-14T21:31:28;21.10;80.20
40434;DHT22;26146;51.114;5.654;2023-06-14T21:35:33;21.00;81.30
40434;DHT22;26146;51.114;5.654;2023-06-14T21:39:34;20.90;82.60
40434;DHT22;26146;51.114;5.654;2023-06-14T21:43:35;20.60;84.30
40434;DHT22;26146;51.114;5.654;2023-06-14T21:47:37;20.30;85.30
40434;DHT22;26146;51.114;5.654;2023-06-14T21:51:38;20.00;86.40
40434;DHT22;26146;51.114;5.654;2023-06-14T21:55:39;19.90;87.30
40434;DHT22;26146;51.114;5.654;2023-06-14T21:59:40;19.60;88.20
40434;DHT22;26146;51.114;5.654;2023-06-14T22:03:41;19.60;89.00
40434;DHT22;26146;51.114;5.654;2023-06-14T22:07:42;19.40;90.00
40434;DHT22;26146;51.114;5.654;2023-06-14T22:11:44;19.30;90.20
40434;DHT22;26146;51.114;5.654;2023-06-14T22:15:45;19.20;90.30
40434;DHT22;26146;51.114;5.654;2023-06-14T22:19:46;19.10;90.50
40434;DHT22;26146;51.114;5.654;2023-06-14T22:23:50;19.20;90.90
40434;DHT22;26146;51.114;5.654;2023-06-14T22:27:51;19.10;90.70
40434;DHT22;26146;51.114;5.654;2023-06-14T22:31:53;19.10;90.40
40434;DHT22;26146;51.114;5.654;2023-06-14T22:35:54;19.20;90.50
40434;DHT22;26146;51.114;5.654;2023-06-14T22:39:58;19.20;90.60
40434;DHT22;26146;51.114;5.654;2023-06-14T22:43:59;19.20;90.50
40434;DHT22;26146;51.114;5.654;2023-06-14T22:48:01;19.10;91.10
40434;DHT22;26146;51.114;5.654;2023-06-14T22:52:02;19.00;91.40
40434;DHT22;26146;51.114;5.654;2023-06-14T22:56:06;18.90;92.10
40434;DHT22;26146;51.114;5.654;2023-06-14T23:00:08;18.70;92.20
40434;DHT22;26146;51.114;5.654;2023-06-14T23:04:12;18.60;92.70
40434;DHT22;26146;51.114;5.654;2023-06-14T23:08:14;18.50;93.10
40434;DHT22;26146;51.114;5.654;2023-06-14T23:12:15;18.40;93.10
40434;DHT22;26146;51.114;5.654;2023-06-14T23:16:16;18.30;93.60
40434;DHT22;26146;51.114;5.654;2023-06-14T23:20:18;18.10;94.00
40434;DHT22;26146;51.114;5.654;2023-06-14T23:24:19;17.90;94.70
40434;DHT22;26146;51.114;5.654;2023-06-14T23:28:20;17.60;95.70
40434;DHT22;26146;51.114;5.654;2023-06-14T23:32:22;17.40;96.60
40434;DHT22;26146;51.114;5.654;2023-06-14T23:36:25;17.40;96.90
40434;DHT22;26146;51.114;5.654;2023-06-14T23:40:31;17.40;97.30
40434;DHT22;26146;51.114;5.654;2023-06-14T23:44:33;17.40;97.40
40434;DHT22;26146;51.114;5.654;2023-06-14T23:48:38;17.40;97.30
40434;DHT22;26146;51.114;5.654;2023-06-14T23:52:39;17.30;97.20
40434;DHT22;26146;51.114;5.654;2023-06-14T23:56:40;17.30;97.50
